createdAt,value
2023-01-21T00:02:08.137Z,4.70
2023-01-21T00:04:38.073Z,4.70
2023-01-21T00:07:06.612Z,4.70
2023-01-21T00:09:36.210Z,4.70
2023-01-21T00:12:04.819Z,4.60
2023-01-21T00:14:33.159Z,4.60
2023-01-21T00:17:01.405Z,4.60
2023-01-21T00:19:30.088Z,4.60
2023-01-21T00:21:58.259Z,4.60
2023-01-21T00:24:26.729Z,4.60
2023-01-21T00:26:56.323Z,4.60
2023-01-21T00:29:24.767Z,4.60
2023-01-21T00:31:52.981Z,4.60
2023-01-21T00:34:21.237Z,4.60
2023-01-21T00:36:49.750Z,4.60
2023-01-21T00:39:17.968Z,4.60
2023-01-21T00:41:46.073Z,4.70
2023-01-21T00:44:16.391Z,4.60
2023-01-21T00:46:44.547Z,4.60
2023-01-21T00:49:12.677Z,4.60
2023-01-21T00:51:40.841Z,4.60
2023-01-21T00:54:08.919Z,4.60
2023-01-21T00:56:36.990Z,4.50
2023-01-21T00:59:05.278Z,4.70
2023-01-21T01:01:37.907Z,4.60
2023-01-21T01:04:06.876Z,4.50
2023-01-21T01:06:35.655Z,4.50
2023-01-21T01:09:04.334Z,4.50
2023-01-21T01:11:32.578Z,4.50
2023-01-21T01:14:01.135Z,4.50
2023-01-21T01:16:29.605Z,4.70
2023-01-21T01:18:59.184Z,4.50
2023-01-21T01:21:27.399Z,4.50
2023-01-21T01:23:57.639Z,4.50
2023-01-21T01:26:25.764Z,4.50
2023-01-21T01:28:54.297Z,4.50
2023-01-21T01:31:23.145Z,4.50
2023-01-21T01:33:51.440Z,4.50
2023-01-21T01:36:23.903Z,4.50
2023-01-21T01:38:52.781Z,4.50
2023-01-21T01:41:23.609Z,4.50
2023-01-21T01:44:02.545Z,4.50
2023-01-21T01:46:32.543Z,4.50
2023-01-21T01:49:12.615Z,4.50
2023-01-21T01:51:49.481Z,4.50
2023-01-21T01:54:22.302Z,4.50
2023-01-21T01:56:55.061Z,4.40
2023-01-21T01:59:23.589Z,4.40
2023-01-21T02:01:51.806Z,4.40
2023-01-21T02:04:24.327Z,4.70
2023-01-21T02:06:55.842Z,4.40
2023-01-21T02:09:29.546Z,4.40
2023-01-21T02:11:58.220Z,4.40
2023-01-21T02:14:26.706Z,4.40
2023-01-21T02:17:17.197Z,4.40
2023-01-21T02:20:20.893Z,4.40
2023-01-21T02:22:59.548Z,4.40
2023-01-21T02:25:59.765Z,4.40
2023-01-21T02:29:12.847Z,4.40
2023-01-21T02:32:08.667Z,4.40
2023-01-21T02:34:44.716Z,4.30
2023-01-21T02:37:18.487Z,4.40
2023-01-21T02:40:02.122Z,4.40
2023-01-21T02:42:37.484Z,4.40
2023-01-21T02:45:15.596Z,4.30
2023-01-21T02:47:52.173Z,4.30
2023-01-21T02:50:25.711Z,4.30
2023-01-21T02:52:57.896Z,4.30
2023-01-21T02:55:30.840Z,4.30
2023-01-21T02:58:01.594Z,4.30
2023-01-21T03:00:36.381Z,4.30
2023-01-21T03:03:37.136Z,4.30
2023-01-21T03:06:37.263Z,4.30
2023-01-21T03:09:15.459Z,4.30
2023-01-21T03:11:56.874Z,4.30
2023-01-21T03:14:48.803Z,4.30
2023-01-21T03:17:24.098Z,4.30
2023-01-21T03:20:00.753Z,4.30
2023-01-21T03:22:35.058Z,4.30
2023-01-21T03:25:04.279Z,4.30
2023-01-21T03:27:33.940Z,4.30
2023-01-21T03:30:06.856Z,4.40
2023-01-21T03:32:36.804Z,4.30
2023-01-21T03:35:08.340Z,4.30
2023-01-21T03:37:42.084Z,4.20
2023-01-21T03:40:19.144Z,4.30
2023-01-21T03:42:50.415Z,4.20
2023-01-21T03:45:22.826Z,4.20
2023-01-21T03:47:55.495Z,4.20
2023-01-21T03:50:28.341Z,4.20
2023-01-21T03:52:58.063Z,4.20
2023-01-21T03:55:26.389Z,4.20
2023-01-21T03:57:54.570Z,4.20
2023-01-21T04:00:23.222Z,4.20
2023-01-21T04:02:51.299Z,4.20
2023-01-21T04:05:19.489Z,4.20
2023-01-21T04:07:47.572Z,4.40
2023-01-21T04:10:18.389Z,4.20
2023-01-21T04:12:46.691Z,4.20
2023-01-21T04:15:14.806Z,4.20
2023-01-21T04:17:42.980Z,4.20
2023-01-21T04:20:12.433Z,4.20
2023-01-21T04:22:40.685Z,4.20
2023-01-21T04:25:09.383Z,4.20
2023-01-21T04:27:38.783Z,4.10
2023-01-21T04:30:08.289Z,4.20
2023-01-21T04:32:42.569Z,4.10
2023-01-21T04:35:11.539Z,4.10
2023-01-21T04:37:43.787Z,4.10
2023-01-21T04:40:15.406Z,4.10
2023-01-21T04:42:45.403Z,4.20
2023-01-21T04:45:13.659Z,4.10
2023-01-21T04:47:43.326Z,4.10
2023-01-21T04:50:16.033Z,4.10
2023-01-21T04:52:51.821Z,4.10
2023-01-21T04:55:25.360Z,4.10
2023-01-21T04:57:56.481Z,4.10
2023-01-21T05:00:25.022Z,4.10
2023-01-21T05:02:53.377Z,4.10
2023-01-21T05:05:23.345Z,4.10
2023-01-21T05:08:05.656Z,4.10
2023-01-21T05:10:34.009Z,4.10
2023-01-21T05:13:04.957Z,4.10
2023-01-21T05:15:33.901Z,4.00
2023-01-21T05:18:02.827Z,4.10
2023-01-21T05:20:45.843Z,4.10
2023-01-21T05:23:17.464Z,4.00
2023-01-21T05:25:46.129Z,4.10
2023-01-21T05:28:18.404Z,4.00
2023-01-21T05:30:46.644Z,4.10
2023-01-21T05:33:28.648Z,4.00
2023-01-21T05:35:58.053Z,4.00
2023-01-21T05:38:29.549Z,4.00
2023-01-21T05:41:19.676Z,4.00
2023-01-21T05:44:09.826Z,4.00
2023-01-21T05:46:40.698Z,4.00
2023-01-21T05:49:25.504Z,4.00
2023-01-21T05:52:00.956Z,4.00
2023-01-21T05:54:33.939Z,4.00
2023-01-21T05:57:08.376Z,4.00
2023-01-21T05:59:40.680Z,4.00
2023-01-21T06:02:10.199Z,4.00
2023-01-21T06:04:39.992Z,3.90
2023-01-21T06:07:10.011Z,4.00
2023-01-21T06:09:38.932Z,4.00
2023-01-21T06:12:10.613Z,4.00
2023-01-21T06:14:41.612Z,4.00
2023-01-21T06:17:10.172Z,3.90
2023-01-21T06:19:44.985Z,4.00
2023-01-21T06:22:16.932Z,3.90
2023-01-21T06:24:49.824Z,3.90
2023-01-21T06:27:18.825Z,3.90
2023-01-21T06:29:50.480Z,3.90
2023-01-21T06:32:19.119Z,3.90
2023-01-21T06:35:02.538Z,4.00
2023-01-21T06:37:33.086Z,4.10
2023-01-21T06:40:11.411Z,3.90
2023-01-21T06:42:39.683Z,3.90
2023-01-21T06:45:10.266Z,3.90
2023-01-21T06:47:41.248Z,3.90
2023-01-21T06:50:11.264Z,3.90
2023-01-21T06:52:40.669Z,3.90
2023-01-21T06:55:09.767Z,3.90
2023-01-21T06:57:39.642Z,3.80
2023-01-21T07:00:15.425Z,3.80
2023-01-21T07:02:43.822Z,3.80
2023-01-21T07:05:12.067Z,3.80
2023-01-21T07:07:40.325Z,3.80
2023-01-21T07:10:10.138Z,3.80
2023-01-21T07:12:38.294Z,3.80
2023-01-21T07:15:09.916Z,3.80
2023-01-21T07:17:38.328Z,3.70
2023-01-21T07:20:07.791Z,3.70
2023-01-21T07:22:36.398Z,3.70
2023-01-21T07:25:04.909Z,3.70
2023-01-21T07:27:33.668Z,3.70
2023-01-21T07:30:01.839Z,3.70
2023-01-21T07:32:31.335Z,3.70
2023-01-21T07:34:59.574Z,3.70
2023-01-21T07:37:27.931Z,3.70
2023-01-21T07:39:56.501Z,3.70
2023-01-21T07:42:24.823Z,4.00
2023-01-21T07:44:53.044Z,3.80
2023-01-21T07:47:21.204Z,3.70
2023-01-21T07:49:51.605Z,3.70
2023-01-21T07:52:19.971Z,3.70
2023-01-21T07:54:48.768Z,3.70
2023-01-21T07:57:16.953Z,3.70
2023-01-21T07:59:45.448Z,3.70
2023-01-21T08:02:14.467Z,3.70
2023-01-21T08:04:42.719Z,3.70
2023-01-21T08:07:13.328Z,3.70
2023-01-21T08:09:41.959Z,3.70
2023-01-21T08:12:10.614Z,3.70
2023-01-21T08:14:39.576Z,3.70
2023-01-21T08:17:07.901Z,3.70
2023-01-21T08:19:36.097Z,3.30
2023-01-21T08:22:04.235Z,3.70
2023-01-21T08:24:33.923Z,3.70
2023-01-21T08:27:02.217Z,3.70
2023-01-21T08:29:30.488Z,3.70
2023-01-21T08:31:59.522Z,3.70
2023-01-21T08:34:28.065Z,3.70
2023-01-21T08:36:56.259Z,3.70
2023-01-21T08:39:24.537Z,3.70
2023-01-21T08:41:54.145Z,3.90
2023-01-21T08:44:22.326Z,3.70
2023-01-21T08:46:50.679Z,3.70
2023-01-21T08:49:18.945Z,3.70
2023-01-21T08:51:47.291Z,3.70
2023-01-21T08:54:15.602Z,3.70
2023-01-21T08:56:43.808Z,3.80
2023-01-21T08:59:13.453Z,3.80
2023-01-21T09:01:41.671Z,3.80
2023-01-21T09:04:10.677Z,3.80
2023-01-21T09:06:38.989Z,3.80
2023-01-21T09:09:07.267Z,3.90
2023-01-21T09:11:35.656Z,3.80
2023-01-21T09:14:04.368Z,3.90
2023-01-21T09:16:35.404Z,4.00
2023-01-21T09:19:03.851Z,3.90
2023-01-21T09:21:34.476Z,3.90
2023-01-21T09:24:03.203Z,3.90
2023-01-21T09:26:31.398Z,4.00
2023-01-21T09:29:01.339Z,4.00
2023-01-21T09:31:31.523Z,4.00
2023-01-21T09:34:03.665Z,4.00
2023-01-21T09:36:34.172Z,4.00
2023-01-21T09:39:02.858Z,4.00
2023-01-21T09:41:35.741Z,4.10
2023-01-21T09:44:12.590Z,4.10
2023-01-21T09:46:45.692Z,4.10
2023-01-21T09:49:21.198Z,4.10
2023-01-21T09:51:54.026Z,4.10
2023-01-21T09:54:30.394Z,4.10
2023-01-21T09:57:28.817Z,4.10
2023-01-21T10:00:08.316Z,4.10
2023-01-21T10:02:50.074Z,4.10
2023-01-21T10:05:45.666Z,4.10
2023-01-21T10:08:21.989Z,4.10
2023-01-21T10:10:53.777Z,4.30
2023-01-21T10:13:41.030Z,4.10
2023-01-21T10:16:15.538Z,4.10
2023-01-21T10:18:47.224Z,4.10
2023-01-21T10:21:31.829Z,4.10
2023-01-21T10:24:05.385Z,4.10
2023-01-21T10:26:36.005Z,4.10
2023-01-21T10:29:04.731Z,4.20
2023-01-21T10:31:41.322Z,4.20
2023-01-21T10:34:14.738Z,4.20
2023-01-21T10:37:00.628Z,4.20
2023-01-21T10:39:40.616Z,4.20
2023-01-21T10:42:34.576Z,4.20
2023-01-21T10:45:10.673Z,4.20
2023-01-21T10:47:46.732Z,4.20
2023-01-21T10:50:28.007Z,4.20
2023-01-21T10:53:04.492Z,4.20
2023-01-21T10:55:49.207Z,4.30
2023-01-21T10:58:26.080Z,4.20
2023-01-21T11:00:56.331Z,4.60
2023-01-21T11:03:33.801Z,4.20
2023-01-21T11:06:04.388Z,4.20
2023-01-21T11:08:34.072Z,4.30
2023-01-21T11:11:03.968Z,4.30
2023-01-21T11:13:34.222Z,4.30
2023-01-21T11:16:04.417Z,4.30
2023-01-21T11:18:36.777Z,4.40
2023-01-21T11:21:13.713Z,4.30
2023-01-21T11:23:43.560Z,4.30
2023-01-21T11:26:21.338Z,4.40
2023-01-21T11:28:49.654Z,4.40
2023-01-21T11:31:26.428Z,4.40
2023-01-21T11:33:56.074Z,4.40
2023-01-21T11:36:24.381Z,4.40
2023-01-21T11:39:03.031Z,4.40
2023-01-21T11:41:31.883Z,4.40
2023-01-21T11:44:11.545Z,4.40
2023-01-21T11:46:40.745Z,4.40
2023-01-21T11:49:31.030Z,4.50
2023-01-21T11:52:16.215Z,4.50
2023-01-21T11:54:46.273Z,4.50
2023-01-21T11:57:38.629Z,4.50
2023-01-21T12:00:18.286Z,4.50
2023-01-21T12:02:51.352Z,4.60
2023-01-21T12:05:27.496Z,4.60
2023-01-21T12:07:57.065Z,4.60
2023-01-21T12:10:30.449Z,4.60
2023-01-21T12:13:20.157Z,4.60
2023-01-21T12:16:25.218Z,4.60
2023-01-21T12:19:18.718Z,4.60
2023-01-21T12:22:08.650Z,4.70
2023-01-21T12:24:57.556Z,4.60
2023-01-21T12:27:33.852Z,4.60
2023-01-21T12:30:11.356Z,4.70
2023-01-21T12:32:44.095Z,4.70
2023-01-21T12:35:16.969Z,4.70
2023-01-21T12:37:51.244Z,4.70
2023-01-21T12:40:25.387Z,4.80
2023-01-21T12:42:58.265Z,4.70
2023-01-21T12:45:35.683Z,4.80
2023-01-21T12:48:11.427Z,4.70
2023-01-21T12:50:44.036Z,4.80
2023-01-21T12:53:21.679Z,4.80
2023-01-21T12:56:21.738Z,5.10
2023-01-21T12:58:56.118Z,4.70
2023-01-21T13:01:42.162Z,4.70
2023-01-21T13:04:36.031Z,4.70
2023-01-21T13:07:11.836Z,4.70
2023-01-21T13:09:45.119Z,4.70
2023-01-21T13:12:16.997Z,4.70
2023-01-21T13:14:49.652Z,4.70
2023-01-21T13:17:21.191Z,4.70
2023-01-21T13:19:49.680Z,4.70
2023-01-21T13:22:29.807Z,4.70
2023-01-21T13:25:07.562Z,4.80
2023-01-21T13:27:44.414Z,4.80
2023-01-21T13:30:28.740Z,4.80
2023-01-21T13:33:05.698Z,4.80
2023-01-21T13:35:42.807Z,4.80
2023-01-21T13:38:22.913Z,4.80
2023-01-21T13:40:58.111Z,4.80
2023-01-21T13:43:44.493Z,4.80
2023-01-21T13:46:26.093Z,4.80
2023-01-21T13:49:11.163Z,4.80
2023-01-21T13:51:51.308Z,4.80
2023-01-21T13:54:43.876Z,4.90
2023-01-21T13:57:31.463Z,4.90
2023-01-21T14:00:04.726Z,4.90
2023-01-21T14:02:49.603Z,4.90
2023-01-21T14:05:27.381Z,4.60
2023-01-21T14:08:01.305Z,4.90
2023-01-21T14:10:34.493Z,5.10
2023-01-21T14:13:38.150Z,4.90
2023-01-21T14:16:34.094Z,4.90
2023-01-21T14:19:22.550Z,5.00
2023-01-21T14:22:11.499Z,5.00
2023-01-21T14:24:53.364Z,5.00
2023-01-21T14:27:28.440Z,5.00
2023-01-21T14:30:05.754Z,5.00
2023-01-21T14:32:41.598Z,5.00
2023-01-21T14:35:24.295Z,5.00
2023-01-21T14:38:02.976Z,4.90
2023-01-21T14:40:33.468Z,4.90
2023-01-21T14:43:01.904Z,4.90
2023-01-21T14:45:55.416Z,5.00
2023-01-21T14:48:31.515Z,5.00
2023-01-21T14:51:21.574Z,5.30
2023-01-21T14:53:51.715Z,5.00
2023-01-21T14:56:26.177Z,5.00
2023-01-21T14:58:57.842Z,5.00
2023-01-21T15:01:39.991Z,5.00
2023-01-21T15:04:21.223Z,5.00
2023-01-21T15:06:53.540Z,5.00
2023-01-21T15:09:26.571Z,5.00
2023-01-21T15:11:59.838Z,5.00
2023-01-21T15:14:30.535Z,5.00
2023-01-21T15:16:58.777Z,5.20
2023-01-21T15:19:32.404Z,5.00
2023-01-21T15:22:38.867Z,5.00
2023-01-21T15:25:31.624Z,5.00
2023-01-21T15:28:36.359Z,4.90
2023-01-21T15:31:06.872Z,4.90
2023-01-21T15:33:41.375Z,4.90
2023-01-21T15:36:24.463Z,4.90
2023-01-21T15:38:59.115Z,4.90
2023-01-21T15:41:40.106Z,4.90
2023-01-21T15:44:24.670Z,4.90
2023-01-21T15:47:00.489Z,4.90
2023-01-21T15:49:48.986Z,4.90
2023-01-21T15:52:34.296Z,4.90
2023-01-21T15:55:18.906Z,4.90
2023-01-21T15:57:53.726Z,4.90
2023-01-21T16:00:33.896Z,4.90
2023-01-21T16:03:12.341Z,4.90
2023-01-21T16:05:48.749Z,4.90
2023-01-21T16:08:27.353Z,4.90
2023-01-21T16:11:07.629Z,4.90
2023-01-21T16:13:46.668Z,4.90
2023-01-21T16:16:23.411Z,4.90
2023-01-21T16:18:55.467Z,4.90
2023-01-21T16:21:28.999Z,4.90
2023-01-21T16:24:00.762Z,4.90
2023-01-21T16:26:34.186Z,5.00
2023-01-21T16:29:02.497Z,4.90
2023-01-21T16:31:30.893Z,5.00
2023-01-21T16:33:59.275Z,4.90
2023-01-21T16:36:27.591Z,4.90
2023-01-21T16:38:55.875Z,4.90
2023-01-21T16:41:27.547Z,5.00
2023-01-21T16:44:00.032Z,4.90
2023-01-21T16:46:34.449Z,5.00
2023-01-21T16:49:04.795Z,5.00
2023-01-21T16:51:37.559Z,5.00
2023-01-21T16:54:26.602Z,4.90
2023-01-21T16:56:57.525Z,5.00
2023-01-21T16:59:30.432Z,5.00
2023-01-21T17:02:00.155Z,5.00
2023-01-21T17:04:30.256Z,5.00
2023-01-21T17:06:59.140Z,5.00
2023-01-21T17:09:31.284Z,5.00
2023-01-21T17:12:04.836Z,5.00
2023-01-21T17:14:36.148Z,5.00
2023-01-21T17:17:08.356Z,5.00
2023-01-21T17:19:45.667Z,5.00
2023-01-21T17:22:17.001Z,5.00
2023-01-21T17:24:59.576Z,5.00
2023-01-21T17:27:28.720Z,5.00
2023-01-21T17:30:19.019Z,5.00
2023-01-21T17:32:54.793Z,5.00
2023-01-21T17:35:23.961Z,5.00
2023-01-21T17:37:57.329Z,5.00
2023-01-21T17:40:28.066Z,5.00
2023-01-21T17:42:57.127Z,5.00
2023-01-21T17:45:32.221Z,5.00
2023-01-21T17:48:12.545Z,5.00
2023-01-21T17:50:47.374Z,5.00
2023-01-21T17:53:22.926Z,5.00
2023-01-21T17:56:00.326Z,5.00
2023-01-21T17:58:48.297Z,5.00
2023-01-21T18:01:18.694Z,5.00
2023-01-21T18:03:47.298Z,5.00
2023-01-21T18:06:21.328Z,5.00
2023-01-21T18:08:50.953Z,5.30
2023-01-21T18:11:19.804Z,5.00
2023-01-21T18:13:48.865Z,5.00
2023-01-21T18:16:18.654Z,5.00
2023-01-21T18:18:46.840Z,5.00
2023-01-21T18:21:19.480Z,5.00
2023-01-21T18:23:47.911Z,5.00
2023-01-21T18:26:26.168Z,5.00
2023-01-21T18:28:54.427Z,4.70
2023-01-21T18:31:24.195Z,5.00
2023-01-21T18:33:52.746Z,5.00
2023-01-21T18:36:21.108Z,5.30
2023-01-21T18:38:49.307Z,5.00
2023-01-21T18:41:17.545Z,5.00
2023-01-21T18:43:45.720Z,5.00
2023-01-21T18:46:14.484Z,5.00
2023-01-21T18:48:44.107Z,4.90
2023-01-21T18:51:14.036Z,5.00
2023-01-21T18:53:42.291Z,4.90
2023-01-21T18:56:14.879Z,4.90
2023-01-21T18:58:43.513Z,4.90
2023-01-21T19:01:22.605Z,5.00
2023-01-21T19:03:54.861Z,4.90
2023-01-21T19:06:25.074Z,4.90
2023-01-21T19:08:54.940Z,5.20
2023-01-21T19:11:23.308Z,4.80
2023-01-21T19:13:51.540Z,4.80
2023-01-21T19:16:21.633Z,4.80
2023-01-21T19:18:49.955Z,4.80
2023-01-21T19:21:19.486Z,4.80
2023-01-21T19:23:47.796Z,4.80
2023-01-21T19:26:16.356Z,4.80
2023-01-21T19:28:44.665Z,4.80
2023-01-21T19:31:12.939Z,4.80
2023-01-21T19:33:42.960Z,4.70
2023-01-21T19:36:16.021Z,4.70
2023-01-21T19:38:49.868Z,4.60
2023-01-21T19:41:18.211Z,4.60
2023-01-21T19:43:46.327Z,4.60
2023-01-21T19:46:14.735Z,4.50
2023-01-21T19:48:43.115Z,4.50
2023-01-21T19:51:11.645Z,4.50
2023-01-21T19:53:40.066Z,4.50
2023-01-21T19:56:16.275Z,4.50
2023-01-21T19:58:44.581Z,4.50
2023-01-21T20:01:12.814Z,4.40
2023-01-21T20:03:54.635Z,4.40
2023-01-21T20:06:28.677Z,4.60
2023-01-21T20:08:56.999Z,4.30
2023-01-21T20:11:26.564Z,4.30
2023-01-21T20:13:54.807Z,4.30
2023-01-21T20:16:26.173Z,4.30
2023-01-21T20:18:56.205Z,4.30
2023-01-21T20:21:24.689Z,4.30
2023-01-21T20:23:52.844Z,4.20
2023-01-21T20:26:25.701Z,4.20
2023-01-21T20:28:55.488Z,4.20
2023-01-21T20:31:31.906Z,4.20
2023-01-21T20:34:07.515Z,4.20
2023-01-21T20:36:37.832Z,4.10
2023-01-21T20:39:13.741Z,4.20
2023-01-21T20:41:47.581Z,4.20
2023-01-21T20:44:17.463Z,4.20
2023-01-21T20:46:48.965Z,4.10
2023-01-21T20:49:18.709Z,4.10
2023-01-21T20:52:00.951Z,4.10
2023-01-21T20:54:31.344Z,4.10
2023-01-21T20:57:04.654Z,4.10
2023-01-21T20:59:35.655Z,4.10
2023-01-21T21:02:06.397Z,4.20
2023-01-21T21:04:36.351Z,4.10
2023-01-21T21:07:06.558Z,4.10
2023-01-21T21:09:39.389Z,4.10
2023-01-21T21:12:09.429Z,4.10
2023-01-21T21:14:39.232Z,4.10
2023-01-21T21:17:14.860Z,4.10
2023-01-21T21:19:48.379Z,4.10
2023-01-21T21:22:16.602Z,4.10
2023-01-21T21:24:44.904Z,4.20
2023-01-21T21:27:13.490Z,4.40
2023-01-21T21:29:45.484Z,4.20
2023-01-21T21:32:14.538Z,4.20
2023-01-21T21:34:44.386Z,4.20
2023-01-21T21:37:14.315Z,4.20
2023-01-21T21:39:42.607Z,4.20
2023-01-21T21:42:29.679Z,4.20
2023-01-21T21:44:59.245Z,4.20
2023-01-21T21:47:45.121Z,4.20
2023-01-21T21:50:13.363Z,4.20
2023-01-21T21:52:41.495Z,4.20
2023-01-21T21:55:14.458Z,4.20
2023-01-21T21:57:43.012Z,4.20
2023-01-21T22:00:14.572Z,4.20
2023-01-21T22:02:43.004Z,4.20
2023-01-21T22:05:12.525Z,4.10
2023-01-21T22:07:40.752Z,4.30
2023-01-21T22:10:11.241Z,4.20
2023-01-21T22:12:39.439Z,4.20
2023-01-21T22:15:08.776Z,4.20
2023-01-21T22:17:38.453Z,4.10
2023-01-21T22:20:07.863Z,4.10
2023-01-21T22:22:36.043Z,4.10
2023-01-21T22:25:04.343Z,4.10
2023-01-21T22:27:32.579Z,4.20
2023-01-21T22:30:01.632Z,4.20
2023-01-21T22:32:29.871Z,4.20
2023-01-21T22:34:59.399Z,4.20
2023-01-21T22:37:27.529Z,4.20
2023-01-21T22:39:55.816Z,4.20
2023-01-21T22:42:23.906Z,4.20
2023-01-21T22:44:52.029Z,4.20
2023-01-21T22:47:20.298Z,4.20
2023-01-21T22:49:49.276Z,4.20
2023-01-21T22:52:18.866Z,4.20
2023-01-21T22:54:49.531Z,4.20
2023-01-21T22:57:18.632Z,4.20
2023-01-21T22:59:47.448Z,4.20
2023-01-21T23:02:16.202Z,4.10
2023-01-21T23:04:44.529Z,4.10
2023-01-21T23:07:12.772Z,4.20
2023-01-21T23:09:42.342Z,4.10
2023-01-21T23:12:18.668Z,4.10
2023-01-21T23:14:47.257Z,4.20
2023-01-21T23:17:16.639Z,4.10
2023-01-21T23:19:44.904Z,4.10
2023-01-21T23:22:13.097Z,3.80
2023-01-21T23:24:42.621Z,4.20
2023-01-21T23:27:10.788Z,4.20
2023-01-21T23:29:38.968Z,4.20
2023-01-21T23:32:07.283Z,4.20
2023-01-21T23:34:35.523Z,4.30
2023-01-21T23:37:03.814Z,4.20
2023-01-21T23:39:31.941Z,4.20
2023-01-21T23:42:01.534Z,4.20
2023-01-21T23:44:29.763Z,4.20
2023-01-21T23:46:57.922Z,4.20
2023-01-21T23:49:26.242Z,4.30
2023-01-21T23:51:54.524Z,4.30
2023-01-21T23:54:22.785Z,4.30
2023-01-21T23:56:50.969Z,4.30
2023-01-21T23:59:20.669Z,4.30
